createdAt,value
2023-03-31T00:00:53.470Z,84.85
2023-03-31T00:03:24.892Z,84.28
2023-03-31T00:05:58.304Z,82.65
2023-03-31T00:08:29.892Z,82.06
2023-03-31T00:11:00.748Z,81.73
2023-03-31T00:13:28.824Z,82.41
2023-03-31T00:16:01.559Z,82.66
2023-03-31T00:18:29.971Z,83.19
2023-03-31T00:21:08.103Z,83.27
2023-03-31T00:23:35.509Z,82.70
2023-03-31T00:26:02.825Z,82.48
2023-03-31T00:28:30.296Z,83.01
2023-03-31T00:31:01.150Z,82.33
2023-03-31T00:33:29.636Z,81.96
2023-03-31T00:35:57.838Z,82.54
2023-03-31T00:38:24.950Z,81.86
2023-03-31T00:40:53.842Z,81.49
2023-03-31T00:43:39.150Z,81.04
2023-03-31T00:46:15.487Z,82.01
2023-03-31T00:48:51.545Z,81.19
2023-03-31T00:51:22.284Z,82.15
2023-03-31T00:53:57.506Z,83.21
2023-03-31T00:56:24.896Z,84.73
2023-03-31T00:58:54.032Z,85.22
2023-03-31T01:01:24.697Z,86.55
2023-03-31T01:03:53.004Z,87.37
2023-03-31T01:06:20.195Z,87.39
2023-03-31T01:08:50.081Z,88.22
2023-03-31T01:11:22.049Z,87.67
2023-03-31T01:13:51.991Z,88.33
2023-03-31T01:16:19.163Z,87.91
2023-03-31T01:18:49.627Z,87.37
2023-03-31T01:21:38.507Z,89.32
2023-03-31T01:24:08.682Z,89.45
2023-03-31T01:26:53.728Z,89.66
2023-03-31T01:29:39.366Z,90.22
2023-03-31T01:32:24.995Z,91.05
2023-03-31T01:35:09.505Z,91.20
2023-03-31T01:37:42.360Z,91.49
2023-03-31T01:40:23.237Z,91.67
2023-03-31T01:43:16.389Z,92.06
2023-03-31T01:45:52.611Z,92.71
2023-03-31T01:48:30.099Z,92.68
2023-03-31T01:51:02.089Z,92.21
2023-03-31T01:54:18.595Z,92.06
2023-03-31T01:57:00.407Z,92.22
2023-03-31T01:59:34.391Z,92.65
2023-03-31T02:02:07.441Z,92.83
2023-03-31T02:04:42.323Z,93.63
2023-03-31T02:07:17.548Z,94.42
2023-03-31T02:09:50.312Z,94.38
2023-03-31T02:12:21.924Z,94.81
2023-03-31T02:14:52.567Z,95.18
2023-03-31T02:17:30.165Z,95.58
2023-03-31T02:20:01.654Z,96.04
2023-03-31T02:22:34.073Z,96.07
2023-03-31T02:25:03.100Z,96.25
2023-03-31T02:27:37.487Z,96.08
2023-03-31T02:30:06.788Z,95.45
2023-03-31T02:32:39.732Z,94.04
2023-03-31T02:35:10.240Z,94.96
2023-03-31T02:37:39.186Z,96.18
2023-03-31T02:40:10.424Z,96.20
2023-03-31T02:42:39.560Z,96.23
2023-03-31T02:45:27.785Z,95.95
2023-03-31T02:47:55.597Z,96.13
2023-03-31T02:50:31.576Z,97.13
2023-03-31T02:53:29.419Z,97.64
2023-03-31T02:56:18.487Z,98.37
2023-03-31T02:59:06.665Z,98.64
2023-03-31T03:01:55.003Z,98.73
2023-03-31T03:04:41.680Z,99.26
2023-03-31T03:07:24.058Z,98.80
2023-03-31T03:10:12.310Z,98.80
2023-03-31T03:13:12.350Z,98.54
2023-03-31T03:15:46.242Z,98.98
2023-03-31T03:18:14.333Z,98.57
2023-03-31T03:20:49.146Z,98.85
2023-03-31T03:23:17.890Z,98.88
2023-03-31T03:25:46.078Z,99.44
2023-03-31T03:28:13.182Z,99.82
2023-03-31T03:30:40.452Z,100.00
2023-03-31T03:33:07.635Z,100.00
2023-03-31T03:35:34.980Z,99.73
2023-03-31T03:38:02.311Z,99.74
2023-03-31T03:40:29.418Z,98.78
2023-03-31T03:42:56.515Z,98.54
2023-03-31T03:45:23.602Z,98.48
2023-03-31T03:47:50.701Z,98.38
2023-03-31T03:50:17.915Z,98.62
2023-03-31T03:52:45.114Z,97.95
2023-03-31T03:55:12.327Z,97.40
2023-03-31T03:57:39.440Z,96.32
2023-03-31T04:00:12.176Z,95.84
2023-03-31T04:02:40.358Z,94.92
2023-03-31T04:05:07.992Z,95.66
2023-03-31T04:07:35.158Z,95.41
2023-03-31T04:10:02.265Z,94.85
2023-03-31T04:12:29.403Z,94.34
2023-03-31T04:14:56.527Z,94.53
2023-03-31T04:17:32.544Z,94.39
2023-03-31T04:20:02.214Z,93.83
2023-03-31T04:22:35.274Z,93.71
2023-03-31T04:25:04.915Z,93.81
2023-03-31T04:27:33.737Z,92.74
2023-03-31T04:30:00.873Z,93.21
2023-03-31T04:32:28.423Z,94.04
2023-03-31T04:35:03.314Z,94.10
2023-03-31T04:37:34.932Z,94.41
2023-03-31T04:40:08.548Z,95.76
2023-03-31T04:42:36.127Z,95.24
2023-03-31T04:45:03.976Z,95.42
2023-03-31T04:47:31.316Z,95.42
2023-03-31T04:49:58.491Z,94.29
2023-03-31T04:52:25.765Z,93.94
2023-03-31T04:54:52.835Z,94.47
2023-03-31T04:57:20.021Z,95.32
2023-03-31T04:59:47.370Z,94.92
2023-03-31T05:02:16.015Z,94.72
2023-03-31T05:04:43.131Z,94.19
2023-03-31T05:07:10.669Z,95.17
2023-03-31T05:09:37.766Z,94.87
2023-03-31T05:12:05.017Z,94.70
2023-03-31T05:14:32.099Z,95.50
2023-03-31T05:16:59.474Z,93.89
2023-03-31T05:19:26.812Z,93.63
2023-03-31T05:21:53.933Z,93.58
2023-03-31T05:24:21.080Z,93.66
2023-03-31T05:26:52.589Z,93.61
2023-03-31T05:29:20.612Z,93.98
2023-03-31T05:31:48.136Z,93.10
2023-03-31T05:34:16.250Z,92.69
2023-03-31T05:36:43.531Z,91.82
2023-03-31T05:39:10.727Z,91.85
2023-03-31T05:41:37.799Z,92.09
2023-03-31T05:44:05.077Z,92.11
2023-03-31T05:46:32.354Z,91.61
2023-03-31T05:48:59.516Z,91.90
2023-03-31T05:51:26.681Z,92.14
2023-03-31T05:53:53.808Z,90.51
2023-03-31T05:56:22.166Z,89.90
2023-03-31T05:58:49.324Z,89.73
2023-03-31T06:01:21.220Z,89.25
2023-03-31T06:03:48.941Z,88.21
2023-03-31T06:06:19.449Z,88.64
2023-03-31T06:08:47.847Z,89.79
2023-03-31T06:11:19.331Z,90.13
2023-03-31T06:13:47.023Z,89.45
2023-03-31T06:16:15.573Z,89.92
2023-03-31T06:18:43.086Z,89.44
2023-03-31T06:21:16.282Z,86.68
2023-03-31T06:23:44.469Z,86.37
2023-03-31T06:26:18.945Z,85.65
2023-03-31T06:28:46.852Z,85.72
2023-03-31T06:31:19.914Z,84.80
2023-03-31T06:33:48.135Z,84.85
2023-03-31T06:36:17.611Z,85.12
2023-03-31T06:38:45.642Z,83.82
2023-03-31T06:41:15.231Z,83.09
2023-03-31T06:43:42.709Z,83.33
2023-03-31T06:46:10.444Z,80.80
2023-03-31T06:48:37.781Z,79.25
2023-03-31T06:51:06.638Z,78.68
2023-03-31T06:53:34.333Z,78.73
2023-03-31T06:56:01.612Z,78.31
2023-03-31T06:58:31.441Z,78.04
2023-03-31T07:00:59.100Z,75.89
2023-03-31T07:03:26.369Z,77.55
2023-03-31T07:05:54.983Z,78.77
2023-03-31T07:08:23.057Z,77.11
2023-03-31T07:10:57.632Z,77.42
2023-03-31T07:13:25.742Z,75.32
2023-03-31T07:15:53.655Z,74.30
2023-03-31T07:18:21.650Z,73.37
2023-03-31T07:20:50.530Z,73.97
2023-03-31T07:23:18.815Z,71.88
2023-03-31T07:25:47.156Z,69.79
2023-03-31T07:28:14.657Z,70.39
2023-03-31T07:30:42.722Z,71.33
2023-03-31T07:33:10.429Z,70.04
2023-03-31T07:35:39.659Z,68.26
2023-03-31T07:38:14.355Z,69.36
2023-03-31T07:40:45.268Z,68.64
2023-03-31T07:43:13.485Z,68.19
2023-03-31T07:45:40.955Z,68.77
2023-03-31T07:48:08.377Z,68.98
2023-03-31T07:50:35.547Z,67.60
2023-03-31T07:53:06.498Z,67.39
2023-03-31T07:55:33.634Z,64.94
2023-03-31T07:58:00.944Z,63.55
2023-03-31T08:00:28.178Z,65.03
2023-03-31T08:02:55.553Z,65.48
2023-03-31T08:05:22.892Z,64.42
2023-03-31T08:07:51.385Z,63.86
2023-03-31T08:10:23.633Z,60.85
2023-03-31T08:12:50.866Z,62.28
2023-03-31T08:15:18.683Z,62.00
2023-03-31T08:17:46.139Z,62.85
2023-03-31T08:20:13.498Z,62.26
2023-03-31T08:22:41.226Z,63.12
2023-03-31T08:25:10.127Z,62.19
2023-03-31T08:27:40.118Z,59.56
2023-03-31T08:30:09.821Z,59.84
2023-03-31T08:32:37.680Z,59.86
2023-03-31T08:35:05.732Z,58.95
2023-03-31T08:37:33.531Z,58.92
2023-03-31T08:40:00.835Z,59.05
2023-03-31T08:42:37.751Z,59.22
2023-03-31T08:45:15.205Z,60.19
2023-03-31T08:47:43.682Z,60.27
2023-03-31T08:50:17.574Z,60.23
2023-03-31T08:53:02.059Z,59.08
2023-03-31T08:55:37.456Z,59.29
2023-03-31T08:58:35.771Z,61.04
2023-03-31T09:01:29.444Z,60.16
2023-03-31T09:04:44.066Z,60.08
2023-03-31T09:07:11.224Z,59.31
2023-03-31T09:10:12.196Z,59.22
2023-03-31T09:13:28.489Z,60.70
2023-03-31T09:16:08.775Z,58.14
2023-03-31T09:18:38.807Z,58.21
2023-03-31T09:21:21.108Z,59.15
2023-03-31T09:24:09.469Z,57.11
2023-03-31T09:26:58.558Z,59.59
2023-03-31T09:29:47.916Z,57.06
2023-03-31T09:32:24.712Z,57.03
2023-03-31T09:35:14.249Z,56.58
2023-03-31T09:37:41.460Z,57.06
2023-03-31T09:40:18.580Z,54.61
2023-03-31T09:42:51.271Z,53.74
2023-03-31T09:45:20.280Z,53.71
2023-03-31T09:47:52.125Z,54.08
2023-03-31T09:50:20.814Z,56.81
2023-03-31T09:52:56.527Z,56.30
2023-03-31T09:55:38.246Z,54.20
2023-03-31T09:58:12.686Z,53.64
2023-03-31T10:00:57.336Z,54.17
2023-03-31T10:03:25.054Z,51.59
2023-03-31T10:06:15.789Z,52.44
2023-03-31T10:08:51.639Z,52.73
2023-03-31T10:11:18.835Z,52.34
2023-03-31T10:14:13.300Z,51.61
2023-03-31T10:16:48.083Z,49.87
2023-03-31T10:19:24.093Z,48.85
2023-03-31T10:22:07.008Z,48.69
2023-03-31T10:24:40.943Z,49.92
2023-03-31T10:27:20.029Z,50.29
2023-03-31T10:29:47.506Z,48.85
2023-03-31T10:32:23.970Z,48.40
2023-03-31T10:34:51.541Z,47.54
2023-03-31T10:37:22.536Z,45.89
2023-03-31T10:39:58.878Z,46.47
2023-03-31T10:42:27.726Z,49.92
2023-03-31T10:45:37.929Z,51.66
2023-03-31T10:48:16.885Z,49.75
2023-03-31T10:50:44.526Z,47.92
2023-03-31T10:53:14.509Z,50.21
2023-03-31T10:55:47.462Z,51.29
2023-03-31T10:58:36.238Z,49.34
2023-03-31T11:01:20.867Z,50.32
2023-03-31T11:04:06.755Z,50.07
2023-03-31T11:06:43.310Z,50.03
2023-03-31T11:09:22.569Z,46.27
2023-03-31T11:12:18.083Z,45.95
2023-03-31T11:15:16.418Z,43.63
2023-03-31T11:18:05.221Z,41.77
2023-03-31T11:20:47.518Z,42.16
2023-03-31T11:23:43.720Z,45.95
2023-03-31T11:26:36.356Z,47.23
2023-03-31T11:29:27.518Z,44.71
2023-03-31T11:32:19.222Z,45.78
2023-03-31T11:35:07.989Z,45.26
2023-03-31T11:37:53.482Z,44.66
2023-03-31T11:40:29.619Z,43.26
2023-03-31T11:43:27.820Z,46.00
2023-03-31T11:46:09.911Z,48.64
2023-03-31T11:48:55.764Z,45.25
2023-03-31T11:51:32.690Z,45.75
2023-03-31T11:54:03.531Z,45.92
2023-03-31T11:56:37.643Z,43.82
2023-03-31T11:59:07.393Z,46.67
2023-03-31T12:02:04.395Z,45.17
2023-03-31T12:04:39.946Z,44.08
2023-03-31T12:07:44.145Z,44.37
2023-03-31T12:10:23.948Z,44.93
2023-03-31T12:13:14.242Z,45.60
2023-03-31T12:15:46.605Z,46.59
2023-03-31T12:18:19.019Z,44.81
2023-03-31T12:20:56.589Z,48.31
2023-03-31T12:23:27.999Z,47.88
2023-03-31T12:26:11.390Z,46.36
2023-03-31T12:28:40.656Z,48.87
2023-03-31T12:31:14.200Z,49.43
2023-03-31T12:33:47.330Z,45.79
2023-03-31T12:36:23.453Z,48.07
2023-03-31T12:39:27.442Z,47.60
2023-03-31T12:42:08.673Z,48.73
2023-03-31T12:44:54.060Z,47.19
2023-03-31T12:47:39.772Z,44.61
2023-03-31T12:50:30.103Z,42.11
2023-03-31T12:53:27.297Z,44.88
2023-03-31T12:55:58.709Z,45.39
2023-03-31T12:58:34.780Z,45.45
2023-03-31T13:01:28.621Z,46.11
2023-03-31T13:04:21.611Z,43.86
2023-03-31T13:06:53.792Z,44.42
2023-03-31T13:09:32.937Z,44.19
2023-03-31T13:12:07.897Z,44.78
2023-03-31T13:14:40.355Z,44.92
2023-03-31T13:17:23.293Z,44.31
2023-03-31T13:19:52.230Z,43.02
2023-03-31T13:22:43.449Z,44.19
2023-03-31T13:25:43.784Z,43.50
2023-03-31T13:28:18.710Z,42.65
2023-03-31T13:30:51.450Z,42.70
2023-03-31T13:33:33.175Z,44.53
2023-03-31T13:36:29.979Z,43.20
2023-03-31T13:39:05.811Z,42.55
2023-03-31T13:41:51.513Z,44.12
2023-03-31T13:44:29.342Z,44.94
2023-03-31T13:47:16.649Z,43.87
2023-03-31T13:49:54.464Z,42.54
2023-03-31T13:52:47.905Z,41.03
2023-03-31T13:55:34.546Z,40.36
2023-03-31T13:58:35.305Z,43.14
2023-03-31T14:01:37.188Z,41.48
2023-03-31T14:04:16.469Z,42.80
2023-03-31T14:06:49.964Z,46.29
2023-03-31T14:09:32.263Z,45.30
2023-03-31T14:12:00.481Z,45.66
2023-03-31T14:14:29.644Z,46.26
2023-03-31T14:16:59.259Z,45.94
2023-03-31T14:19:35.834Z,45.94
2023-03-31T14:22:06.012Z,45.46
2023-03-31T14:24:56.275Z,44.56
2023-03-31T14:27:43.640Z,42.74
2023-03-31T14:30:27.194Z,41.87
2023-03-31T14:33:22.435Z,43.75
2023-03-31T14:36:15.910Z,44.74
2023-03-31T14:38:43.538Z,40.63
2023-03-31T14:41:20.112Z,38.81
2023-03-31T14:43:51.202Z,36.40
2023-03-31T14:46:22.103Z,37.80
2023-03-31T14:48:51.446Z,38.64
2023-03-31T14:51:26.360Z,36.44
2023-03-31T14:54:01.644Z,36.61
2023-03-31T14:56:40.077Z,39.34
2023-03-31T14:59:08.150Z,39.63
2023-03-31T15:01:38.291Z,38.56
2023-03-31T15:04:13.017Z,39.80
2023-03-31T15:06:47.871Z,40.28
2023-03-31T15:09:23.715Z,39.58
2023-03-31T15:11:59.611Z,40.46
2023-03-31T15:14:34.127Z,39.73
2023-03-31T15:17:01.985Z,40.48
2023-03-31T15:19:33.027Z,39.84
2023-03-31T15:22:06.130Z,40.31
2023-03-31T15:24:33.406Z,39.89
2023-03-31T15:27:16.334Z,41.18
2023-03-31T15:29:49.586Z,42.56
2023-03-31T15:32:37.344Z,44.36
2023-03-31T15:35:18.831Z,44.87
2023-03-31T15:37:52.088Z,46.03
2023-03-31T15:40:42.961Z,47.51
2023-03-31T15:43:25.832Z,47.71
2023-03-31T15:45:58.312Z,48.07
2023-03-31T15:48:37.756Z,49.31
2023-03-31T15:51:13.854Z,49.22
2023-03-31T15:53:47.057Z,50.87
2023-03-31T15:56:31.363Z,51.55
2023-03-31T15:59:03.235Z,50.08
2023-03-31T16:01:38.737Z,50.26
2023-03-31T16:04:09.580Z,50.23
2023-03-31T16:06:48.612Z,49.59
2023-03-31T16:09:41.815Z,50.58
2023-03-31T16:12:24.474Z,51.22
2023-03-31T16:14:58.050Z,51.71
2023-03-31T16:17:28.312Z,52.51
2023-03-31T16:20:07.340Z,53.12
2023-03-31T16:22:40.596Z,53.74
2023-03-31T16:25:10.815Z,52.44
2023-03-31T16:27:47.800Z,52.74
2023-03-31T16:30:21.090Z,53.99
2023-03-31T16:33:00.194Z,54.33
2023-03-31T16:35:40.173Z,53.75
2023-03-31T16:38:09.805Z,54.06
2023-03-31T16:40:39.342Z,55.57
2023-03-31T16:43:10.152Z,54.98
2023-03-31T16:45:37.481Z,56.52
2023-03-31T16:48:15.507Z,54.75
2023-03-31T16:50:58.465Z,54.56
2023-03-31T16:53:28.396Z,56.41
2023-03-31T16:55:56.146Z,59.18
2023-03-31T16:58:24.558Z,59.15
2023-03-31T17:00:52.231Z,58.38
2023-03-31T17:03:20.472Z,58.21
2023-03-31T17:05:53.104Z,58.71
2023-03-31T17:08:22.803Z,60.41
2023-03-31T17:11:00.642Z,61.29
2023-03-31T17:13:27.883Z,60.08
2023-03-31T17:16:01.293Z,60.25
2023-03-31T17:18:35.945Z,61.65
2023-03-31T17:21:08.052Z,64.10
2023-03-31T17:23:36.483Z,61.86
2023-03-31T17:26:04.356Z,61.02
2023-03-31T17:28:31.752Z,60.70
2023-03-31T17:30:59.177Z,60.31
2023-03-31T17:33:27.809Z,59.81
2023-03-31T17:36:01.059Z,59.94
2023-03-31T17:38:28.796Z,60.31
2023-03-31T17:40:56.016Z,60.76
2023-03-31T17:43:23.283Z,62.43
2023-03-31T17:45:50.393Z,62.83
2023-03-31T17:48:17.615Z,61.98
2023-03-31T17:50:44.813Z,63.39
2023-03-31T17:53:12.033Z,62.57
2023-03-31T17:55:39.268Z,64.11
2023-03-31T17:58:08.445Z,64.62
2023-03-31T18:00:35.808Z,63.35
2023-03-31T18:03:03.173Z,62.88
2023-03-31T18:05:32.365Z,63.50
2023-03-31T18:07:59.647Z,62.97
2023-03-31T18:10:26.764Z,63.82
2023-03-31T18:12:54.967Z,63.74
2023-03-31T18:15:22.681Z,65.51
2023-03-31T18:17:50.615Z,65.68
2023-03-31T18:20:18.126Z,66.84
2023-03-31T18:22:45.376Z,66.82
2023-03-31T18:25:13.041Z,67.53
2023-03-31T18:27:40.271Z,68.33
2023-03-31T18:30:08.463Z,68.89
2023-03-31T18:32:35.866Z,69.01
2023-03-31T18:35:03.081Z,70.08
2023-03-31T18:37:30.265Z,71.75
2023-03-31T18:39:57.678Z,72.24
2023-03-31T18:42:25.707Z,73.11
2023-03-31T18:44:53.252Z,73.36
2023-03-31T18:47:21.361Z,74.33
2023-03-31T18:49:53.296Z,73.18
2023-03-31T18:52:20.654Z,73.77
2023-03-31T18:54:48.128Z,74.44
2023-03-31T18:57:15.545Z,76.64
2023-03-31T18:59:42.760Z,76.07
2023-03-31T19:02:14.061Z,76.54
2023-03-31T19:04:41.605Z,78.85
2023-03-31T19:07:08.712Z,80.05
2023-03-31T19:09:36.267Z,79.86
2023-03-31T19:12:04.347Z,78.14
2023-03-31T19:14:31.557Z,80.40
2023-03-31T19:16:59.505Z,84.58
2023-03-31T19:19:27.114Z,85.54
2023-03-31T19:21:54.555Z,86.32
2023-03-31T19:24:21.793Z,86.25
2023-03-31T19:26:48.986Z,88.71
2023-03-31T19:29:16.600Z,89.22
2023-03-31T19:31:45.090Z,89.52
2023-03-31T19:34:12.364Z,90.52
2023-03-31T19:36:40.138Z,92.36
2023-03-31T19:39:07.307Z,94.51
2023-03-31T19:41:35.802Z,95.00
2023-03-31T19:44:03.036Z,93.37
2023-03-31T19:46:30.592Z,93.90
2023-03-31T19:48:57.834Z,94.15
2023-03-31T19:51:24.963Z,93.79
2023-03-31T19:53:53.261Z,94.73
2023-03-31T19:56:21.317Z,94.67
2023-03-31T19:58:50.156Z,94.52
2023-03-31T20:01:23.559Z,94.72
2023-03-31T20:03:53.042Z,94.23
2023-03-31T20:06:30.782Z,94.66
2023-03-31T20:09:00.333Z,94.54
2023-03-31T20:11:29.404Z,95.29
2023-03-31T20:13:59.091Z,95.71
2023-03-31T20:16:28.115Z,95.37
2023-03-31T20:18:58.709Z,95.63
2023-03-31T20:21:28.556Z,96.22
2023-03-31T20:23:57.064Z,96.97
2023-03-31T20:26:29.439Z,97.45
2023-03-31T20:28:58.857Z,96.60
2023-03-31T20:31:28.352Z,97.18
2023-03-31T20:33:56.399Z,98.14
2023-03-31T20:36:26.039Z,97.58
2023-03-31T20:38:53.840Z,97.78
2023-03-31T20:41:23.882Z,96.79
2023-03-31T20:43:51.974Z,96.71
2023-03-31T20:46:19.853Z,96.70
2023-03-31T20:48:50.986Z,96.38
2023-03-31T20:51:21.489Z,97.19
2023-03-31T20:53:52.699Z,97.43
2023-03-31T20:56:28.220Z,98.00
2023-03-31T20:58:58.857Z,98.19
2023-03-31T21:01:27.886Z,98.69
2023-03-31T21:03:58.959Z,99.84
2023-03-31T21:06:32.618Z,99.90
2023-03-31T21:08:59.942Z,99.76
2023-03-31T21:11:27.434Z,99.40
2023-03-31T21:13:54.813Z,99.26
2023-03-31T21:16:22.364Z,99.08
2023-03-31T21:18:51.708Z,99.09
2023-03-31T21:21:19.444Z,98.34
2023-03-31T21:23:46.895Z,99.09
2023-03-31T21:26:15.767Z,99.72
2023-03-31T21:28:43.705Z,99.53
2023-03-31T21:31:17.948Z,98.88
2023-03-31T21:33:47.136Z,99.42
2023-03-31T21:36:17.997Z,99.93
2023-03-31T21:38:45.596Z,100.00
2023-03-31T21:41:15.692Z,100.00
2023-03-31T21:43:43.710Z,100.00
2023-03-31T21:46:17.390Z,100.00
2023-03-31T21:48:44.984Z,100.00
2023-03-31T21:51:12.115Z,100.00
2023-03-31T21:53:39.273Z,100.00
2023-03-31T21:56:06.477Z,100.00
2023-03-31T21:58:33.694Z,100.00
2023-03-31T22:01:04.035Z,100.00
2023-03-31T22:03:34.248Z,100.00
2023-03-31T22:06:03.593Z,100.00
2023-03-31T22:08:31.692Z,100.00
2023-03-31T22:11:00.467Z,99.72
2023-03-31T22:13:29.083Z,99.17
2023-03-31T22:15:56.388Z,99.17
2023-03-31T22:18:23.732Z,99.27
2023-03-31T22:20:51.497Z,99.75
2023-03-31T22:23:20.797Z,99.59
2023-03-31T22:25:48.498Z,99.84
2023-03-31T22:28:16.692Z,100.00
2023-03-31T22:30:43.997Z,100.00
2023-03-31T22:33:12.115Z,100.00
2023-03-31T22:35:39.343Z,100.00
2023-03-31T22:38:08.664Z,100.00
2023-03-31T22:40:36.303Z,100.00
2023-03-31T22:43:03.824Z,100.00
2023-03-31T22:45:31.386Z,100.00
2023-03-31T22:47:58.746Z,100.00
2023-03-31T22:50:25.921Z,100.00
2023-03-31T22:52:53.106Z,100.00
2023-03-31T22:55:20.666Z,100.00
2023-03-31T22:57:47.875Z,100.00
2023-03-31T23:00:15.364Z,100.00
2023-03-31T23:02:42.603Z,100.00
2023-03-31T23:05:10.018Z,100.00
2023-03-31T23:07:38.545Z,100.00
2023-03-31T23:10:06.360Z,100.00
2023-03-31T23:12:33.530Z,100.00
2023-03-31T23:15:00.790Z,100.00
2023-03-31T23:17:27.904Z,100.00
2023-03-31T23:19:55.386Z,100.00
2023-03-31T23:22:22.539Z,100.00
2023-03-31T23:24:49.720Z,100.00
2023-03-31T23:27:17.635Z,100.00
2023-03-31T23:29:46.016Z,100.00
2023-03-31T23:32:14.162Z,100.00
2023-03-31T23:34:41.875Z,100.00
2023-03-31T23:37:11.211Z,100.00
2023-03-31T23:39:39.483Z,100.00
2023-03-31T23:42:07.978Z,100.00
2023-03-31T23:44:38.661Z,100.00
2023-03-31T23:47:06.156Z,100.00
2023-03-31T23:49:33.523Z,100.00
2023-03-31T23:52:00.927Z,100.00
2023-03-31T23:54:29.007Z,100.00
2023-03-31T23:56:56.342Z,100.00
2023-03-31T23:59:23.514Z,100.00
